sensor_id;sensor_type;location;lat;lon;timestamp;P1;P2;P0
57049;PMS7003;42935;50.966;16.992;2022-12-07T00:04:19;28;23;17
57049;PMS7003;42935;50.966;16.992;2022-12-07T00:07:25;32;23;15
57049;PMS7003;42935;50.966;16.992;2022-12-07T00:10:35;27;21;15
57049;PMS7003;42935;50.966;16.992;2022-12-07T00:13:42;25;22;14
57049;PMS7003;42935;50.966;16.992;2022-12-07T00:16:54;21;19;14
57049;PMS7003;42935;50.966;16.992;2022-12-07T00:20:06;23;18;12
57049;PMS7003;42935;50.966;16.992;2022-12-07T00:23:14;18;16;12
57049;PMS7003;42935;50.966;16.992;2022-12-07T00:26:28;18;15;9
57049;PMS7003;42935;50.966;16.992;2022-12-07T00:29:39;19;18;11
57049;PMS7003;42935;50.966;16.992;2022-12-07T00:32:46;20;17;10
57049;PMS7003;42935;50.966;16.992;2022-12-07T00:36:27;23;16;9
57049;PMS7003;42935;50.966;16.992;2022-12-07T00:39:37;16;14;10
57049;PMS7003;42935;50.966;16.992;2022-12-07T00:42:56;20;16;11
57049;PMS7003;42935;50.966;16.992;2022-12-07T00:46:05;16;13;9
57049;PMS7003;42935;50.966;16.992;2022-12-07T00:49:15;17;13;9
57049;PMS7003;42935;50.966;16.992;2022-12-07T00:52:29;15;13;9
57049;PMS7003;42935;50.966;16.992;2022-12-07T00:55:37;16;12;9
57049;PMS7003;42935;50.966;16.992;2022-12-07T00:59:16;15;13;10
57049;PMS7003;42935;50.966;16.992;2022-12-07T01:02:26;14;11;8
57049;PMS7003;42935;50.966;16.992;2022-12-07T01:05:36;12;10;8
57049;PMS7003;42935;50.966;16.992;2022-12-07T01:08:48;11;8;6
57049;PMS7003;42935;50.966;16.992;2022-12-07T01:11:56;11;9;6
57049;PMS7003;42935;50.966;16.992;2022-12-07T01:15:07;9;7;5
57049;PMS7003;42935;50.966;16.992;2022-12-07T01:18:49;5;5;4
57049;PMS7003;42935;50.966;16.992;2022-12-07T01:21:55;8;5;3
57049;PMS7003;42935;50.966;16.992;2022-12-07T01:25:13;6;5;3
57049;PMS7003;42935;50.966;16.992;2022-12-07T01:28:24;5;4;3
57049;PMS7003;42935;50.966;16.992;2022-12-07T01:31:32;7;6;5
57049;PMS7003;42935;50.966;16.992;2022-12-07T01:34:42;4;3;2
57049;PMS7003;42935;50.966;16.992;2022-12-07T01:37:47;6;4;4
57049;PMS7003;42935;50.966;16.992;2022-12-07T01:40:57;4;3;2
57049;PMS7003;42935;50.966;16.992;2022-12-07T01:44:07;3;2;1
57049;PMS7003;42935;50.966;16.992;2022-12-07T01:47:17;2;1;1
57049;PMS7003;42935;50.966;16.992;2022-12-07T01:50:28;1;1;1
57049;PMS7003;42935;50.966;16.992;2022-12-07T01:53:39;0;0;0
57049;PMS7003;42935;50.966;16.992;2022-12-07T01:56:51;0;0;0
57049;PMS7003;42935;50.966;16.992;2022-12-07T01:59:59;2;1;0
57049;PMS7003;42935;50.966;16.992;2022-12-07T02:03:11;1;1;0
57049;PMS7003;42935;50.966;16.992;2022-12-07T02:06:27;1;0;0
57049;PMS7003;42935;50.966;16.992;2022-12-07T02:09:38;1;0;0
57049;PMS7003;42935;50.966;16.992;2022-12-07T02:13:19;1;0;0
57049;PMS7003;42935;50.966;16.992;2022-12-07T02:26:36;1;1;1
57049;PMS7003;42935;50.966;16.992;2022-12-07T02:36:30;1;1;1
57049;PMS7003;42935;50.966;16.992;2022-12-07T02:39:46;3;2;1
57049;PMS7003;42935;50.966;16.992;2022-12-07T02:43:06;3;1;1
57049;PMS7003;42935;50.966;16.992;2022-12-07T02:46:23;2;1;1
57049;PMS7003;42935;50.966;16.992;2022-12-07T02:50:10;2;2;1
57049;PMS7003;42935;50.966;16.992;2022-12-07T02:56:41;1;1;0
57049;PMS7003;42935;50.966;16.992;2022-12-07T03:03:12;2;2;1
57049;PMS7003;42935;50.966;16.992;2022-12-07T03:06:28;4;2;1
57049;PMS7003;42935;50.966;16.992;2022-12-07T03:16:41;5;3;2
57049;PMS7003;42935;50.966;16.992;2022-12-07T03:19:51;4;4;2
57049;PMS7003;42935;50.966;16.992;2022-12-07T03:23:04;4;4;2
57049;PMS7003;42935;50.966;16.992;2022-12-07T03:26:18;4;3;2
57049;PMS7003;42935;50.966;16.992;2022-12-07T03:29:30;2;1;1
57049;PMS7003;42935;50.966;16.992;2022-12-07T03:32:44;4;3;1
57049;PMS7003;42935;50.966;16.992;2022-12-07T03:36:07;3;3;2
57049;PMS7003;42935;50.966;16.992;2022-12-07T03:39:31;6;3;3
57049;PMS7003;42935;50.966;16.992;2022-12-07T03:42:48;2;2;2
57049;PMS7003;42935;50.966;16.992;2022-12-07T03:52:39;7;4;2
57049;PMS7003;42935;50.966;16.992;2022-12-07T03:55:55;3;2;2
57049;PMS7003;42935;50.966;16.992;2022-12-07T03:59:07;4;2;2
57049;PMS7003;42935;50.966;16.992;2022-12-07T04:02:17;5;4;2
57049;PMS7003;42935;50.966;16.992;2022-12-07T04:05:26;4;2;1
57049;PMS7003;42935;50.966;16.992;2022-12-07T04:08:32;5;4;3
57049;PMS7003;42935;50.966;16.992;2022-12-07T04:11:37;5;3;2
57049;PMS7003;42935;50.966;16.992;2022-12-07T04:14:46;6;4;3
57049;PMS7003;42935;50.966;16.992;2022-12-07T04:17:55;5;4;2
57049;PMS7003;42935;50.966;16.992;2022-12-07T04:21:03;5;5;4
57049;PMS7003;42935;50.966;16.992;2022-12-07T04:24:11;6;5;4
57049;PMS7003;42935;50.966;16.992;2022-12-07T04:27:20;6;5;4
57049;PMS7003;42935;50.966;16.992;2022-12-07T04:30:30;7;5;3
57049;PMS7003;42935;50.966;16.992;2022-12-07T04:33:42;6;5;4
57049;PMS7003;42935;50.966;16.992;2022-12-07T04:36:47;5;5;3
57049;PMS7003;42935;50.966;16.992;2022-12-07T04:40:28;6;5;4
57049;PMS7003;42935;50.966;16.992;2022-12-07T04:43:35;6;5;4
57049;PMS7003;42935;50.966;16.992;2022-12-07T04:46:46;6;4;2
57049;PMS7003;42935;50.966;16.992;2022-12-07T04:49:56;5;4;3
57049;PMS7003;42935;50.966;16.992;2022-12-07T04:53:03;5;3;2
57049;PMS7003;42935;50.966;16.992;2022-12-07T04:56:10;3;2;2
57049;PMS7003;42935;50.966;16.992;2022-12-07T04:59:24;2;2;1
57049;PMS7003;42935;50.966;16.992;2022-12-07T05:02:35;3;2;1
57049;PMS7003;42935;50.966;16.992;2022-12-07T05:05:43;2;2;2
57049;PMS7003;42935;50.966;16.992;2022-12-07T05:08:51;4;3;2
57049;PMS7003;42935;50.966;16.992;2022-12-07T05:11:58;3;2;2
57049;PMS7003;42935;50.966;16.992;2022-12-07T05:15:39;5;3;2
57049;PMS7003;42935;50.966;16.992;2022-12-07T05:18:56;12;6;5
57049;PMS7003;42935;50.966;16.992;2022-12-07T05:22:04;9;5;5
57049;PMS7003;42935;50.966;16.992;2022-12-07T05:25:10;7;4;4
57049;PMS7003;42935;50.966;16.992;2022-12-07T05:28:17;4;2;1
57049;PMS7003;42935;50.966;16.992;2022-12-07T05:31:25;8;4;2
57049;PMS7003;42935;50.966;16.992;2022-12-07T05:34:36;6;4;2
57049;PMS7003;42935;50.966;16.992;2022-12-07T05:37:46;4;4;2
57049;PMS7003;42935;50.966;16.992;2022-12-07T05:41:00;7;5;3
57049;PMS7003;42935;50.966;16.992;2022-12-07T05:44:14;7;5;3
57049;PMS7003;42935;50.966;16.992;2022-12-07T05:47:24;10;5;4
57049;PMS7003;42935;50.966;16.992;2022-12-07T05:50:34;13;7;5
57049;PMS7003;42935;50.966;16.992;2022-12-07T05:53:42;14;10;8
57049;PMS7003;42935;50.966;16.992;2022-12-07T05:56:52;12;8;6
57049;PMS7003;42935;50.966;16.992;2022-12-07T05:59:58;11;9;6
57049;PMS7003;42935;50.966;16.992;2022-12-07T06:03:11;13;11;7
57049;PMS7003;42935;50.966;16.992;2022-12-07T06:06:20;12;9;7
57049;PMS7003;42935;50.966;16.992;2022-12-07T06:09:30;13;12;8
57049;PMS7003;42935;50.966;16.992;2022-12-07T06:12:41;16;12;7
57049;PMS7003;42935;50.966;16.992;2022-12-07T06:15:54;20;15;10
57049;PMS7003;42935;50.966;16.992;2022-12-07T06:19:05;21;15;10
57049;PMS7003;42935;50.966;16.992;2022-12-07T06:22:16;20;15;11
57049;PMS7003;42935;50.966;16.992;2022-12-07T06:25:29;25;18;11
57049;PMS7003;42935;50.966;16.992;2022-12-07T06:28:40;24;19;11
57049;PMS7003;42935;50.966;16.992;2022-12-07T06:31:48;27;19;11
57049;PMS7003;42935;50.966;16.992;2022-12-07T06:35:07;27;21;11
57049;PMS7003;42935;50.966;16.992;2022-12-07T06:38:16;26;22;13
57049;PMS7003;42935;50.966;16.992;2022-12-07T06:41:24;21;18;11
57049;PMS7003;42935;50.966;16.992;2022-12-07T06:44:32;25;19;10
57049;PMS7003;42935;50.966;16.992;2022-12-07T06:47:46;24;21;12
57049;PMS7003;42935;50.966;16.992;2022-12-07T06:51:24;23;17;10
57049;PMS7003;42935;50.966;16.992;2022-12-07T06:54:35;25;17;12
57049;PMS7003;42935;50.966;16.992;2022-12-07T06:57:48;22;18;12
57049;PMS7003;42935;50.966;16.992;2022-12-07T07:01:25;24;21;12
57049;PMS7003;42935;50.966;16.992;2022-12-07T07:04:34;26;20;11
57049;PMS7003;42935;50.966;16.992;2022-12-07T07:07:48;28;20;11
57049;PMS7003;42935;50.966;16.992;2022-12-07T07:11:04;23;20;13
57049;PMS7003;42935;50.966;16.992;2022-12-07T07:14:18;31;25;14
57049;PMS7003;42935;50.966;16.992;2022-12-07T07:17:27;25;18;11
57049;PMS7003;42935;50.966;16.992;2022-12-07T07:21:06;28;21;13
57049;PMS7003;42935;50.966;16.992;2022-12-07T07:24:16;33;24;14
57049;PMS7003;42935;50.966;16.992;2022-12-07T07:27:29;22;18;12
57049;PMS7003;42935;50.966;16.992;2022-12-07T07:30:40;28;23;15
57049;PMS7003;42935;50.966;16.992;2022-12-07T07:33:48;33;23;15
57049;PMS7003;42935;50.966;16.992;2022-12-07T07:36:56;27;23;13
57049;PMS7003;42935;50.966;16.992;2022-12-07T07:40:09;33;29;17
57049;PMS7003;42935;50.966;16.992;2022-12-07T07:43:20;29;26;17
57049;PMS7003;42935;50.966;16.992;2022-12-07T07:46:39;37;28;15
57049;PMS7003;42935;50.966;16.992;2022-12-07T07:49:51;40;29;18
57049;PMS7003;42935;50.966;16.992;2022-12-07T07:53:05;41;31;18
57049;PMS7003;42935;50.966;16.992;2022-12-07T07:56:18;32;26;17
57049;PMS7003;42935;50.966;16.992;2022-12-07T07:59:28;41;32;19
57049;PMS7003;42935;50.966;16.992;2022-12-07T08:02:43;30;23;14
57049;PMS7003;42935;50.966;16.992;2022-12-07T08:06:25;28;22;13
57049;PMS7003;42935;50.966;16.992;2022-12-07T08:09:31;29;20;13
57049;PMS7003;42935;50.966;16.992;2022-12-07T08:12:43;27;21;12
57049;PMS7003;42935;50.966;16.992;2022-12-07T08:16:06;30;22;13
57049;PMS7003;42935;50.966;16.992;2022-12-07T08:19:22;35;22;12
57049;PMS7003;42935;50.966;16.992;2022-12-07T08:22:31;25;20;14
57049;PMS7003;42935;50.966;16.992;2022-12-07T08:25:38;25;21;13
57049;PMS7003;42935;50.966;16.992;2022-12-07T08:28:46;30;23;14
57049;PMS7003;42935;50.966;16.992;2022-12-07T08:31:57;31;23;15
57049;PMS7003;42935;50.966;16.992;2022-12-07T08:35:05;28;22;13
57049;PMS7003;42935;50.966;16.992;2022-12-07T08:38:15;30;23;14
57049;PMS7003;42935;50.966;16.992;2022-12-07T08:41:55;34;25;15
57049;PMS7003;42935;50.966;16.992;2022-12-07T08:45:08;27;21;14
57049;PMS7003;42935;50.966;16.992;2022-12-07T08:48:23;31;25;14
57049;PMS7003;42935;50.966;16.992;2022-12-07T08:51:34;30;24;14
57049;PMS7003;42935;50.966;16.992;2022-12-07T08:54:42;27;21;14
57049;PMS7003;42935;50.966;16.992;2022-12-07T08:58:02;29;24;14
57049;PMS7003;42935;50.966;16.992;2022-12-07T09:01:12;35;25;16
57049;PMS7003;42935;50.966;16.992;2022-12-07T09:04:20;32;23;13
57049;PMS7003;42935;50.966;16.992;2022-12-07T09:07:27;31;22;13
57049;PMS7003;42935;50.966;16.992;2022-12-07T09:10:36;24;21;14
57049;PMS7003;42935;50.966;16.992;2022-12-07T09:13:45;25;17;11
57049;PMS7003;42935;50.966;16.992;2022-12-07T09:20:17;23;18;11
57049;PMS7003;42935;50.966;16.992;2022-12-07T09:23:25;25;18;12
57049;PMS7003;42935;50.966;16.992;2022-12-07T09:26:45;26;19;11
57049;PMS7003;42935;50.966;16.992;2022-12-07T09:29:55;21;18;12
57049;PMS7003;42935;50.966;16.992;2022-12-07T09:33:02;28;20;13
57049;PMS7003;42935;50.966;16.992;2022-12-07T09:36:17;29;25;13
57049;PMS7003;42935;50.966;16.992;2022-12-07T09:39:25;26;21;13
57049;PMS7003;42935;50.966;16.992;2022-12-07T09:42:39;29;21;11
57049;PMS7003;42935;50.966;16.992;2022-12-07T09:45:56;29;24;15
57049;PMS7003;42935;50.966;16.992;2022-12-07T09:49:04;29;24;14
57049;PMS7003;42935;50.966;16.992;2022-12-07T09:52:19;28;22;14
57049;PMS7003;42935;50.966;16.992;2022-12-07T09:55:33;29;23;14
57049;PMS7003;42935;50.966;16.992;2022-12-07T09:59:20;28;23;15
57049;PMS7003;42935;50.966;16.992;2022-12-07T10:02:37;25;21;14
57049;PMS7003;42935;50.966;16.992;2022-12-07T10:05:52;24;20;12
57049;PMS7003;42935;50.966;16.992;2022-12-07T10:09:08;24;20;12
57049;PMS7003;42935;50.966;16.992;2022-12-07T10:12:23;21;18;10
57049;PMS7003;42935;50.966;16.992;2022-12-07T10:18:54;19;16;10
57049;PMS7003;42935;50.966;16.992;2022-12-07T10:22:41;21;14;8
57049;PMS7003;42935;50.966;16.992;2022-12-07T10:32:46;15;11;8
57049;PMS7003;42935;50.966;16.992;2022-12-07T10:35:52;13;10;7
57049;PMS7003;42935;50.966;16.992;2022-12-07T10:39:10;7;6;5
57049;PMS7003;42935;50.966;16.992;2022-12-07T10:42:24;12;9;7
57049;PMS7003;42935;50.966;16.992;2022-12-07T11:26:12;12;11;7
57049;PMS7003;42935;50.966;16.992;2022-12-07T11:36:27;12;9;6
57049;PMS7003;42935;50.966;16.992;2022-12-07T11:43:33;16;15;8
57049;PMS7003;42935;50.966;16.992;2022-12-07T11:46:44;15;14;8
57049;PMS7003;42935;50.966;16.992;2022-12-07T11:53:23;19;14;9
57049;PMS7003;42935;50.966;16.992;2022-12-07T11:56:40;15;12;9
57049;PMS7003;42935;50.966;16.992;2022-12-07T11:59:50;11;8;5
57049;PMS7003;42935;50.966;16.992;2022-12-07T12:03:07;13;11;7
57049;PMS7003;42935;50.966;16.992;2022-12-07T12:06:21;12;11;8
57049;PMS7003;42935;50.966;16.992;2022-12-07T12:10:04;12;8;7
57049;PMS7003;42935;50.966;16.992;2022-12-07T12:16:45;11;9;7
57049;PMS7003;42935;50.966;16.992;2022-12-07T12:33:33;16;10;8
57049;PMS7003;42935;50.966;16.992;2022-12-07T12:36:44;12;9;7
57049;PMS7003;42935;50.966;16.992;2022-12-07T12:53:26;14;13;8
57049;PMS7003;42935;50.966;16.992;2022-12-07T12:56:45;11;10;7
57049;PMS7003;42935;50.966;16.992;2022-12-07T12:59:58;15;12;8
57049;PMS7003;42935;50.966;16.992;2022-12-07T13:03:51;11;10;7
57049;PMS7003;42935;50.966;16.992;2022-12-07T13:07:03;14;12;7
57049;PMS7003;42935;50.966;16.992;2022-12-07T13:13:36;16;10;7
57049;PMS7003;42935;50.966;16.992;2022-12-07T13:16:44;11;10;7
57049;PMS7003;42935;50.966;16.992;2022-12-07T13:20:19;13;9;8
57049;PMS7003;42935;50.966;16.992;2022-12-07T13:23:14;16;11;7
57049;PMS7003;42935;50.966;16.992;2022-12-07T13:27:01;13;11;8
57049;PMS7003;42935;50.966;16.992;2022-12-07T13:30:18;14;10;7
57049;PMS7003;42935;50.966;16.992;2022-12-07T13:33:32;15;11;9
57049;PMS7003;42935;50.966;16.992;2022-12-07T13:36:45;14;12;9
57049;PMS7003;42935;50.966;16.992;2022-12-07T13:39:58;20;15;11
57049;PMS7003;42935;50.966;16.992;2022-12-07T13:43:14;24;15;10
57049;PMS7003;42935;50.966;16.992;2022-12-07T13:46:27;17;12;9
57049;PMS7003;42935;50.966;16.992;2022-12-07T13:49:51;17;13;11
57049;PMS7003;42935;50.966;16.992;2022-12-07T13:53:07;21;12;10
57049;PMS7003;42935;50.966;16.992;2022-12-07T13:56:25;20;13;9
57049;PMS7003;42935;50.966;16.992;2022-12-07T13:59:36;13;11;8
57049;PMS7003;42935;50.966;16.992;2022-12-07T14:02:54;19;10;7
57049;PMS7003;42935;50.966;16.992;2022-12-07T14:06:05;9;9;7
57049;PMS7003;42935;50.966;16.992;2022-12-07T14:09:26;14;10;7
57049;PMS7003;42935;50.966;16.992;2022-12-07T14:12:35;12;9;7
57049;PMS7003;42935;50.966;16.992;2022-12-07T14:19:48;13;9;7
57049;PMS7003;42935;50.966;16.992;2022-12-07T14:23:34;9;8;6
57049;PMS7003;42935;50.966;16.992;2022-12-07T14:26:43;12;9;7
57049;PMS7003;42935;50.966;16.992;2022-12-07T14:29:54;11;10;7
57049;PMS7003;42935;50.966;16.992;2022-12-07T14:33:08;12;10;7
57049;PMS7003;42935;50.966;16.992;2022-12-07T14:36:18;21;16;12
57049;PMS7003;42935;50.966;16.992;2022-12-07T14:39:32;17;13;10
57049;PMS7003;42935;50.966;16.992;2022-12-07T14:42:40;12;11;8
57049;PMS7003;42935;50.966;16.992;2022-12-07T14:45:49;16;10;7
57049;PMS7003;42935;50.966;16.992;2022-12-07T14:49:00;15;11;7
57049;PMS7003;42935;50.966;16.992;2022-12-07T14:52:06;15;13;10
57049;PMS7003;42935;50.966;16.992;2022-12-07T14:55:32;20;18;12
57049;PMS7003;42935;50.966;16.992;2022-12-07T14:58:39;16;13;10
57049;PMS7003;42935;50.966;16.992;2022-12-07T15:01:51;16;14;9
57049;PMS7003;42935;50.966;16.992;2022-12-07T15:05:09;19;14;10
57049;PMS7003;42935;50.966;16.992;2022-12-07T15:08:25;19;12;9
57049;PMS7003;42935;50.966;16.992;2022-12-07T15:11:30;19;13;10
57049;PMS7003;42935;50.966;16.992;2022-12-07T15:14:38;11;10;8
57049;PMS7003;42935;50.966;16.992;2022-12-07T15:17:50;15;14;11
57049;PMS7003;42935;50.966;16.992;2022-12-07T15:21:00;18;14;9
57049;PMS7003;42935;50.966;16.992;2022-12-07T15:24:08;15;12;9
57049;PMS7003;42935;50.966;16.992;2022-12-07T15:27:20;27;19;13
57049;PMS7003;42935;50.966;16.992;2022-12-07T15:30:32;28;18;13
57049;PMS7003;42935;50.966;16.992;2022-12-07T15:33:44;18;15;11
57049;PMS7003;42935;50.966;16.992;2022-12-07T15:37:26;19;15;11
57049;PMS7003;42935;50.966;16.992;2022-12-07T15:40:33;10;8;6
57049;PMS7003;42935;50.966;16.992;2022-12-07T15:43:42;14;13;8
57049;PMS7003;42935;50.966;16.992;2022-12-07T15:47:00;17;13;9
57049;PMS7003;42935;50.966;16.992;2022-12-07T15:50:12;13;12;9
57049;PMS7003;42935;50.966;16.992;2022-12-07T15:53:26;18;16;10
57049;PMS7003;42935;50.966;16.992;2022-12-07T15:56:38;15;10;6
57049;PMS7003;42935;50.966;16.992;2022-12-07T15:59:45;18;11;9
57049;PMS7003;42935;50.966;16.992;2022-12-07T16:02:50;20;13;9
57049;PMS7003;42935;50.966;16.992;2022-12-07T16:06:06;14;12;9
57049;PMS7003;42935;50.966;16.992;2022-12-07T16:09:12;12;9;6
57049;PMS7003;42935;50.966;16.992;2022-12-07T16:12:21;11;8;6
57049;PMS7003;42935;50.966;16.992;2022-12-07T16:15:31;12;7;6
57049;PMS7003;42935;50.966;16.992;2022-12-07T16:18:43;12;10;7
57049;PMS7003;42935;50.966;16.992;2022-12-07T16:21:56;14;9;7
57049;PMS7003;42935;50.966;16.992;2022-12-07T16:25:07;11;9;6
57049;PMS7003;42935;50.966;16.992;2022-12-07T16:28:17;16;13;9
57049;PMS7003;42935;50.966;16.992;2022-12-07T16:31:33;19;12;8
57049;PMS7003;42935;50.966;16.992;2022-12-07T16:34:43;12;9;6
57049;PMS7003;42935;50.966;16.992;2022-12-07T16:37:53;19;11;8
57049;PMS7003;42935;50.966;16.992;2022-12-07T16:41:03;14;12;8
57049;PMS7003;42935;50.966;16.992;2022-12-07T16:44:14;15;11;8
57049;PMS7003;42935;50.966;16.992;2022-12-07T16:47:23;13;11;8
57049;PMS7003;42935;50.966;16.992;2022-12-07T16:50:30;16;13;9
57049;PMS7003;42935;50.966;16.992;2022-12-07T16:53:39;21;15;11
57049;PMS7003;42935;50.966;16.992;2022-12-07T16:56:58;25;20;13
57049;PMS7003;42935;50.966;16.992;2022-12-07T17:00:13;30;23;14
57049;PMS7003;42935;50.966;16.992;2022-12-07T17:03:24;29;24;16
57049;PMS7003;42935;50.966;16.992;2022-12-07T17:06:39;27;20;13
57049;PMS7003;42935;50.966;16.992;2022-12-07T17:09:49;24;17;11
57049;PMS7003;42935;50.966;16.992;2022-12-07T17:13:34;25;20;12
57049;PMS7003;42935;50.966;16.992;2022-12-07T17:16:57;26;19;11
57049;PMS7003;42935;50.966;16.992;2022-12-07T17:20:07;22;15;11
57049;PMS7003;42935;50.966;16.992;2022-12-07T17:23:15;14;14;10
57049;PMS7003;42935;50.966;16.992;2022-12-07T17:26:24;18;13;9
57049;PMS7003;42935;50.966;16.992;2022-12-07T17:29:43;22;14;10
57049;PMS7003;42935;50.966;16.992;2022-12-07T17:32:54;15;14;9
57049;PMS7003;42935;50.966;16.992;2022-12-07T17:36:16;21;15;9
57049;PMS7003;42935;50.966;16.992;2022-12-07T17:39:27;16;11;8
57049;PMS7003;42935;50.966;16.992;2022-12-07T17:42:42;21;13;9
57049;PMS7003;42935;50.966;16.992;2022-12-07T17:46:31;17;12;9
57049;PMS7003;42935;50.966;16.992;2022-12-07T17:49:39;14;12;8
57049;PMS7003;42935;50.966;16.992;2022-12-07T17:52:49;19;13;9
57049;PMS7003;42935;50.966;16.992;2022-12-07T17:56:08;36;23;15
57049;PMS7003;42935;50.966;16.992;2022-12-07T17:59:23;33;27;16
57049;PMS7003;42935;50.966;16.992;2022-12-07T18:02:32;34;26;17
57049;PMS7003;42935;50.966;16.992;2022-12-07T18:05:45;40;28;17
57049;PMS7003;42935;50.966;16.992;2022-12-07T18:08:58;44;34;22
57049;PMS7003;42935;50.966;16.992;2022-12-07T18:12:16;47;35;21
57049;PMS7003;42935;50.966;16.992;2022-12-07T18:15:27;53;40;24
57049;PMS7003;42935;50.966;16.992;2022-12-07T18:18:38;46;36;23
57049;PMS7003;42935;50.966;16.992;2022-12-07T18:21:54;47;34;22
57049;PMS7003;42935;50.966;16.992;2022-12-07T18:25:09;41;30;17
57049;PMS7003;42935;50.966;16.992;2022-12-07T18:28:17;41;33;19
57049;PMS7003;42935;50.966;16.992;2022-12-07T18:31:30;42;32;19
57049;PMS7003;42935;50.966;16.992;2022-12-07T18:34:39;39;27;18
57049;PMS7003;42935;50.966;16.992;2022-12-07T18:37:48;34;23;15
57049;PMS7003;42935;50.966;16.992;2022-12-07T18:41:02;27;22;14
57049;PMS7003;42935;50.966;16.992;2022-12-07T18:44:16;27;20;14
57049;PMS7003;42935;50.966;16.992;2022-12-07T18:47:25;28;20;15
57049;PMS7003;42935;50.966;16.992;2022-12-07T18:50:37;36;22;16
57049;PMS7003;42935;50.966;16.992;2022-12-07T18:53:45;23;20;13
57049;PMS7003;42935;50.966;16.992;2022-12-07T18:56:56;38;28;18
57049;PMS7003;42935;50.966;16.992;2022-12-07T19:00:09;45;34;22
57049;PMS7003;42935;50.966;16.992;2022-12-07T19:03:31;43;33;17
57049;PMS7003;42935;50.966;16.992;2022-12-07T19:06:42;48;35;23
57049;PMS7003;42935;50.966;16.992;2022-12-07T19:09:55;29;23;14
57049;PMS7003;42935;50.966;16.992;2022-12-07T19:13:11;35;25;17
57049;PMS7003;42935;50.966;16.992;2022-12-07T19:16:19;33;26;18
57049;PMS7003;42935;50.966;16.992;2022-12-07T19:20:00;30;24;17
57049;PMS7003;42935;50.966;16.992;2022-12-07T19:23:11;31;25;17
57049;PMS7003;42935;50.966;16.992;2022-12-07T19:26:20;35;22;15
57049;PMS7003;42935;50.966;16.992;2022-12-07T19:29:37;40;28;16
57049;PMS7003;42935;50.966;16.992;2022-12-07T19:32:49;36;27;16
57049;PMS7003;42935;50.966;16.992;2022-12-07T19:35:57;47;34;23
57049;PMS7003;42935;50.966;16.992;2022-12-07T19:39:12;41;33;20
57049;PMS7003;42935;50.966;16.992;2022-12-07T19:42:53;42;31;19
57049;PMS7003;42935;50.966;16.992;2022-12-07T19:46:04;36;27;18
57049;PMS7003;42935;50.966;16.992;2022-12-07T19:49:22;35;28;16
57049;PMS7003;42935;50.966;16.992;2022-12-07T19:52:34;31;26;16
57049;PMS7003;42935;50.966;16.992;2022-12-07T19:55:53;32;27;16
57049;PMS7003;42935;50.966;16.992;2022-12-07T19:59:07;27;21;14
57049;PMS7003;42935;50.966;16.992;2022-12-07T20:02:21;29;24;14
57049;PMS7003;42935;50.966;16.992;2022-12-07T20:05:29;33;26;17
57049;PMS7003;42935;50.966;16.992;2022-12-07T20:08:39;30;24;16
57049;PMS7003;42935;50.966;16.992;2022-12-07T20:11:58;37;26;16
57049;PMS7003;42935;50.966;16.992;2022-12-07T20:15:17;34;27;17
57049;PMS7003;42935;50.966;16.992;2022-12-07T20:18:29;30;25;15
57049;PMS7003;42935;50.966;16.992;2022-12-07T20:21:40;30;26;18
57049;PMS7003;42935;50.966;16.992;2022-12-07T20:24:55;36;26;17
57049;PMS7003;42935;50.966;16.992;2022-12-07T20:28:09;32;24;15
57049;PMS7003;42935;50.966;16.992;2022-12-07T20:31:25;29;23;15
57049;PMS7003;42935;50.966;16.992;2022-12-07T20:34:38;26;22;14
57049;PMS7003;42935;50.966;16.992;2022-12-07T20:37:51;34;24;16
57049;PMS7003;42935;50.966;16.992;2022-12-07T20:41:05;30;26;17
57049;PMS7003;42935;50.966;16.992;2022-12-07T20:44:26;34;25;16
57049;PMS7003;42935;50.966;16.992;2022-12-07T20:47:34;35;24;14
57049;PMS7003;42935;50.966;16.992;2022-12-07T20:50:49;32;25;14
57049;PMS7003;42935;50.966;16.992;2022-12-07T20:53:55;28;22;14
57049;PMS7003;42935;50.966;16.992;2022-12-07T20:57:14;31;24;14
57049;PMS7003;42935;50.966;16.992;2022-12-07T21:00:24;28;21;14
57049;PMS7003;42935;50.966;16.992;2022-12-07T21:03:35;30;23;14
57049;PMS7003;42935;50.966;16.992;2022-12-07T21:06:46;29;19;14
57049;PMS7003;42935;50.966;16.992;2022-12-07T21:09:52;27;19;12
57049;PMS7003;42935;50.966;16.992;2022-12-07T21:13:02;23;18;12
57049;PMS7003;42935;50.966;16.992;2022-12-07T21:16:11;27;18;13
57049;PMS7003;42935;50.966;16.992;2022-12-07T21:19:24;24;17;12
57049;PMS7003;42935;50.966;16.992;2022-12-07T21:22:32;24;20;11
57049;PMS7003;42935;50.966;16.992;2022-12-07T21:26:13;26;19;13
57049;PMS7003;42935;50.966;16.992;2022-12-07T21:29:26;18;15;12
57049;PMS7003;42935;50.966;16.992;2022-12-07T21:32:36;16;15;10
57049;PMS7003;42935;50.966;16.992;2022-12-07T21:35:43;16;14;10
57049;PMS7003;42935;50.966;16.992;2022-12-07T21:38:51;24;20;13
57049;PMS7003;42935;50.966;16.992;2022-12-07T21:41:58;19;15;9
57049;PMS7003;42935;50.966;16.992;2022-12-07T21:45:13;20;17;10
57049;PMS7003;42935;50.966;16.992;2022-12-07T21:48:24;19;14;10
57049;PMS7003;42935;50.966;16.992;2022-12-07T21:54:02;20;14;9
57049;PMS7003;42935;50.966;16.992;2022-12-07T21:57:12;18;14;10
57049;PMS7003;42935;50.966;16.992;2022-12-07T22:00:22;22;16;10
57049;PMS7003;42935;50.966;16.992;2022-12-07T22:03:32;21;19;14
57049;PMS7003;42935;50.966;16.992;2022-12-07T22:06:42;27;19;12
57049;PMS7003;42935;50.966;16.992;2022-12-07T22:09:50;21;17;12
57049;PMS7003;42935;50.966;16.992;2022-12-07T22:12:59;27;19;12
57049;PMS7003;42935;50.966;16.992;2022-12-07T22:16:07;22;16;9
57049;PMS7003;42935;50.966;16.992;2022-12-07T22:19:17;21;15;11
57049;PMS7003;42935;50.966;16.992;2022-12-07T22:22:27;17;14;10
57049;PMS7003;42935;50.966;16.992;2022-12-07T22:25:40;22;18;11
57049;PMS7003;42935;50.966;16.992;2022-12-07T22:28:50;27;20;12
57049;PMS7003;42935;50.966;16.992;2022-12-07T22:32:04;22;19;13
57049;PMS7003;42935;50.966;16.992;2022-12-07T22:35:15;24;19;13
57049;PMS7003;42935;50.966;16.992;2022-12-07T22:38:25;25;19;13
57049;PMS7003;42935;50.966;16.992;2022-12-07T22:41:39;27;21;12
57049;PMS7003;42935;50.966;16.992;2022-12-07T22:45:21;27;22;14
57049;PMS7003;42935;50.966;16.992;2022-12-07T22:49:02;30;25;16
57049;PMS7003;42935;50.966;16.992;2022-12-07T22:52:10;29;23;16
57049;PMS7003;42935;50.966;16.992;2022-12-07T22:55:25;33;26;17
57049;PMS7003;42935;50.966;16.992;2022-12-07T22:58:35;28;18;11
57049;PMS7003;42935;50.966;16.992;2022-12-07T23:01:45;24;20;14
57049;PMS7003;42935;50.966;16.992;2022-12-07T23:04:56;25;19;12
57049;PMS7003;42935;50.966;16.992;2022-12-07T23:08:05;22;18;12
57049;PMS7003;42935;50.966;16.992;2022-12-07T23:11:17;18;15;11